createdAt,value
2019-02-18T00:02:22.744Z,7.90
2019-02-18T00:12:26.133Z,7.80
2019-02-18T00:22:21.790Z,7.90
2019-02-18T00:22:26.419Z,8.10
2019-02-18T00:25:09.955Z,8.10
2019-02-18T00:27:51.349Z,8.40
2019-02-18T00:30:28.905Z,8.10
2019-02-18T00:33:14.904Z,7.80
2019-02-18T00:36:05.565Z,8.00
2019-02-18T00:38:47.975Z,7.90
2019-02-18T00:41:27.789Z,8.10
2019-02-18T00:44:05.121Z,8.10
2019-02-18T00:46:46.782Z,7.90
2019-02-18T00:49:21.616Z,8.00
2019-02-18T00:51:56.226Z,8.00
2019-02-18T00:54:34.592Z,8.00
2019-02-18T00:57:12.842Z,8.00
2019-02-18T00:59:46.298Z,8.00
2019-02-18T01:02:19.547Z,7.90
2019-02-18T01:04:51.713Z,8.00
2019-02-18T01:07:22.494Z,8.00
2019-02-18T01:10:00.339Z,7.90
2019-02-18T01:12:40.342Z,7.90
2019-02-18T01:15:12.043Z,7.90
2019-02-18T01:17:44.046Z,7.80
2019-02-18T01:20:16.274Z,7.80
2019-02-18T01:22:53.189Z,7.60
2019-02-18T01:25:31.226Z,7.60
2019-02-18T01:28:07.896Z,7.70
2019-02-18T01:30:44.691Z,8.40
2019-02-18T01:33:26.567Z,7.60
2019-02-18T01:36:06.737Z,7.40
2019-02-18T01:38:51.018Z,7.40
2019-02-18T01:41:34.677Z,8.00
2019-02-18T01:44:05.754Z,7.30
2019-02-18T01:46:38.231Z,7.30
2019-02-18T01:49:16.726Z,7.10
2019-02-18T01:52:00.701Z,7.10
2019-02-18T01:54:38.137Z,7.10
2019-02-18T01:57:12.951Z,7.00
2019-02-18T01:59:46.715Z,7.00
2019-02-18T02:02:21.494Z,7.00
2019-02-18T02:04:54.437Z,7.60
2019-02-18T02:07:28.455Z,7.00
2019-02-18T02:10:04.708Z,6.10
2019-02-18T02:12:37.914Z,6.90
2019-02-18T02:15:11.856Z,6.80
2019-02-18T02:17:46.634Z,6.80
2019-02-18T02:20:17.777Z,6.70
2019-02-18T02:22:48.872Z,5.50
2019-02-18T02:25:19.104Z,8.00
2019-02-18T02:27:52.153Z,6.80
2019-02-18T02:30:24.793Z,6.70
2019-02-18T02:32:55.876Z,6.00
2019-02-18T02:35:29.640Z,6.70
2019-02-18T02:38:07.581Z,8.00
2019-02-18T02:40:41.645Z,6.70
2019-02-18T02:43:12.459Z,6.60
2019-02-18T02:45:44.395Z,7.40
2019-02-18T02:48:21.812Z,6.70
2019-02-18T02:50:52.409Z,6.80
2019-02-18T02:53:34.612Z,5.80
2019-02-18T02:56:07.467Z,7.00
2019-02-18T02:58:37.897Z,7.00
2019-02-18T03:01:19.585Z,7.90
2019-02-18T03:04:00.700Z,7.10
2019-02-18T03:06:31.176Z,7.10
2019-02-18T03:09:03.126Z,7.70
2019-02-18T03:11:34.561Z,7.00
2019-02-18T03:14:11.076Z,8.20
2019-02-18T03:16:41.707Z,7.10
2019-02-18T03:19:11.911Z,7.10
2019-02-18T03:21:43.772Z,7.10
2019-02-18T03:24:19.684Z,6.90
2019-02-18T03:26:49.666Z,6.80
2019-02-18T03:30:10.261Z,6.20
2019-02-18T03:33:14.084Z,6.70
2019-02-18T03:35:44.817Z,6.70
2019-02-18T03:38:15.240Z,6.10
2019-02-18T03:40:46.760Z,6.70
2019-02-18T03:43:16.898Z,6.80
2019-02-18T03:45:48.500Z,5.50
2019-02-18T03:48:18.929Z,6.90
2019-02-18T03:50:49.477Z,6.80
2019-02-18T03:53:19.824Z,7.10
2019-02-18T03:55:51.899Z,6.70
2019-02-18T03:58:21.768Z,6.80
2019-02-18T04:00:52.365Z,6.80
2019-02-18T04:03:22.460Z,6.80
2019-02-18T04:05:53.522Z,7.30
2019-02-18T04:08:24.155Z,6.80
2019-02-18T04:10:55.107Z,6.80
2019-02-18T04:13:25.112Z,6.70
2019-02-18T04:15:55.613Z,6.50
2019-02-18T04:18:28.923Z,5.50
2019-02-18T04:20:59.591Z,6.80
2019-02-18T04:23:29.564Z,6.70
2019-02-18T04:25:59.665Z,6.70
2019-02-18T04:28:31.000Z,7.10
2019-02-18T04:31:01.104Z,6.60
2019-02-18T04:33:31.952Z,6.70
2019-02-18T04:36:01.910Z,6.60
2019-02-18T04:38:32.663Z,6.10
2019-02-18T04:41:02.603Z,6.50
2019-02-18T04:43:32.844Z,6.40
2019-02-18T04:46:02.755Z,6.30
2019-02-18T04:48:32.893Z,7.20
2019-02-18T04:51:02.576Z,6.20
2019-02-18T04:53:32.961Z,6.20
2019-02-18T04:56:03.245Z,6.20
2019-02-18T04:58:33.328Z,6.20
2019-02-18T05:01:03.324Z,7.40
2019-02-18T05:03:33.828Z,6.30
2019-02-18T05:06:04.754Z,6.30
2019-02-18T05:08:35.922Z,6.30
2019-02-18T05:11:07.410Z,6.40
2019-02-18T05:13:37.427Z,6.30
2019-02-18T05:16:07.270Z,6.30
2019-02-18T05:18:38.272Z,6.40
2019-02-18T05:21:13.197Z,6.20
2019-02-18T05:23:43.355Z,6.20
2019-02-18T05:26:13.027Z,6.10
2019-02-18T05:28:43.027Z,6.20
2019-02-18T05:31:13.411Z,6.20
2019-02-18T05:33:44.989Z,6.20
2019-02-18T05:36:16.852Z,6.20
2019-02-18T05:38:46.704Z,7.20
2019-02-18T05:41:17.397Z,6.80
2019-02-18T05:43:48.503Z,7.80
2019-02-18T05:46:20.860Z,8.50
2019-02-18T05:48:51.416Z,6.30
2019-02-18T05:51:21.973Z,6.40
2019-02-18T05:53:53.873Z,6.30
2019-02-18T05:56:25.033Z,6.10
2019-02-18T05:58:55.123Z,6.50
2019-02-18T06:01:26.986Z,6.30
2019-02-18T06:03:59.994Z,6.40
2019-02-18T06:06:29.227Z,5.20
2019-02-18T06:09:00.266Z,6.40
2019-02-18T06:11:30.348Z,5.50
2019-02-18T06:14:00.491Z,6.60
2019-02-18T06:16:30.849Z,7.40
2019-02-18T06:19:00.284Z,6.40
2019-02-18T06:21:34.333Z,6.40
2019-02-18T06:24:04.958Z,7.10
2019-02-18T06:26:34.730Z,6.40
2019-02-18T06:29:07.215Z,6.40
2019-02-18T06:31:40.933Z,6.40
2019-02-18T06:34:26.283Z,6.50
2019-02-18T06:49:22.940Z,6.50
2019-02-18T06:52:50.998Z,6.50
2019-02-18T06:59:26.611Z,6.60
2019-02-18T07:02:04.060Z,6.70
2019-02-18T07:04:50.137Z,6.60
2019-02-18T07:07:39.661Z,6.60
2019-02-18T07:10:27.797Z,6.60
2019-02-18T07:12:58.950Z,7.30
2019-02-18T08:10:12.145Z,7.40
2019-02-18T08:12:56.612Z,7.40
2019-02-18T08:19:24.037Z,7.60
2019-02-18T08:22:15.510Z,7.60
2019-02-18T08:24:45.538Z,7.70
2019-02-18T08:27:15.302Z,7.70
2019-02-18T08:29:44.650Z,7.80
2019-02-18T08:32:14.181Z,7.90
2019-02-18T08:34:43.172Z,7.90
2019-02-18T08:37:12.739Z,8.00
2019-02-18T08:39:42.308Z,8.10
2019-02-18T08:42:11.930Z,8.20
2019-02-18T08:44:42.569Z,8.20
2019-02-18T08:47:12.047Z,8.30
2019-02-18T08:49:41.764Z,8.40
2019-02-18T08:52:10.952Z,8.50
2019-02-18T08:54:40.871Z,8.60
2019-02-18T08:57:09.736Z,8.70
2019-02-18T08:59:38.936Z,8.70
2019-02-18T09:02:09.003Z,8.80
2019-02-18T09:04:38.049Z,8.90
2019-02-18T09:07:07.179Z,8.90
2019-02-18T09:09:36.753Z,8.80
2019-02-18T09:12:06.345Z,9.00
2019-02-18T09:14:35.714Z,9.00
2019-02-18T09:17:05.198Z,9.10
2019-02-18T09:19:34.547Z,9.10
2019-02-18T09:22:21.520Z,9.20
2019-02-18T09:25:02.614Z,9.20
2019-02-18T09:27:32.370Z,9.40
2019-02-18T09:30:01.575Z,9.40
2019-02-18T09:32:34.485Z,9.40
2019-02-18T09:35:03.630Z,9.40
2019-02-18T09:37:36.446Z,9.50
2019-02-18T09:40:07.401Z,9.50
2019-02-18T09:42:36.307Z,9.50
2019-02-18T09:45:05.980Z,9.50
2019-02-18T09:47:35.130Z,9.40
2019-02-18T09:50:18.688Z,9.50
2019-02-18T09:52:47.851Z,9.40
2019-02-18T09:55:35.989Z,9.60
2019-02-18T09:58:24.500Z,9.70
2019-02-18T10:00:53.661Z,9.90
2019-02-18T10:03:31.532Z,9.90
2019-02-18T10:05:53.491Z,10.00
2019-02-18T10:08:22.798Z,10.10
2019-02-18T10:10:55.988Z,10.20
2019-02-18T10:13:22.863Z,10.20
2019-02-18T10:16:11.439Z,10.40
2019-02-18T10:19:00.623Z,11.00
2019-02-18T10:21:49.009Z,10.50
2019-02-18T10:24:18.271Z,10.80
2019-02-18T10:26:47.440Z,10.70
2019-02-18T10:29:38.049Z,10.70
2019-02-18T10:32:29.632Z,9.90
2019-02-18T10:35:07.055Z,10.80
2019-02-18T10:38:03.169Z,10.90
2019-02-18T10:40:32.879Z,10.90
2019-02-18T10:43:02.826Z,10.90
2019-02-18T10:45:51.487Z,11.00
2019-02-18T11:02:36.152Z,11.60
2019-02-18T12:49:53.315Z,12.90
2019-02-18T12:52:41.674Z,13.00
2019-02-18T12:55:30.201Z,12.90
2019-02-18T12:58:20.081Z,13.20
2019-02-18T13:00:49.666Z,13.60
2019-02-18T13:03:19.201Z,13.30
2019-02-18T13:11:59.431Z,13.60
2019-02-18T13:14:49.111Z,14.60
2019-02-18T13:17:18.364Z,14.10
2019-02-18T13:20:07.300Z,14.10
2019-02-18T13:22:36.629Z,14.40
2019-02-18T13:25:06.961Z,14.30
2019-02-18T13:27:36.343Z,14.40
2019-02-18T13:30:25.308Z,14.40
2019-02-18T13:33:13.901Z,14.40
2019-02-18T13:35:43.891Z,15.50
2019-02-18T13:38:32.312Z,14.70
2019-02-18T13:41:20.571Z,14.80
2019-02-18T13:43:49.623Z,15.40
2019-02-18T13:46:19.739Z,16.50
2019-02-18T13:48:48.975Z,17.70
2019-02-18T13:51:39.690Z,18.50
2019-02-18T13:54:08.726Z,18.50
2019-02-18T13:56:57.244Z,18.50
2019-02-18T13:59:45.510Z,17.70
2019-02-18T14:02:35.519Z,18.60
2019-02-18T14:05:05.022Z,18.50
2019-02-18T14:07:34.232Z,18.80
2019-02-18T14:10:22.528Z,19.20
2019-02-18T14:13:10.916Z,18.70
2019-02-18T14:16:00.636Z,18.10
2019-02-18T14:18:29.730Z,18.30
2019-02-18T14:21:19.202Z,18.30
2019-02-18T14:24:32.133Z,18.40
2019-02-18T14:29:52.996Z,20.00
2019-02-18T14:32:47.465Z,18.60
2019-02-18T14:38:38.073Z,16.70
2019-02-18T14:41:27.013Z,15.60
2019-02-18T14:44:15.447Z,15.20
2019-02-18T14:47:08.978Z,14.80
2019-02-18T14:49:18.503Z,14.70
2019-02-18T14:51:47.636Z,14.50
2019-02-18T14:54:39.752Z,14.20
2019-02-18T14:57:08.823Z,14.30
2019-02-18T14:59:38.232Z,14.20
2019-02-18T15:02:07.355Z,14.20
2019-02-18T15:04:55.521Z,14.10
2019-02-18T15:07:43.916Z,14.00
2019-02-18T15:10:32.416Z,14.00
2019-02-18T15:13:20.807Z,14.20
2019-02-18T15:16:09.380Z,13.80
2019-02-18T15:18:57.970Z,13.90
2019-02-18T15:21:27.496Z,13.70
2019-02-18T15:25:18.395Z,13.60
2019-02-18T15:38:17.205Z,13.40
2019-02-18T15:40:46.192Z,13.40
2019-02-18T15:43:34.805Z,13.30
2019-02-18T15:49:02.112Z,14.20
2019-02-18T15:51:36.235Z,14.10
2019-02-18T15:54:12.892Z,13.10
2019-02-18T15:56:46.925Z,13.10
2019-02-18T15:59:17.040Z,13.00
2019-02-18T16:05:00.315Z,13.00
2019-02-18T16:13:15.974Z,13.90
2019-02-18T16:19:13.695Z,12.30
2019-02-18T16:24:44.103Z,12.00
2019-02-18T16:27:32.544Z,12.00
2019-02-18T16:30:20.835Z,12.20
2019-02-18T16:32:50.308Z,12.00
2019-02-18T16:35:41.815Z,11.70
2019-02-18T16:38:11.017Z,10.70
2019-02-18T16:40:40.421Z,11.70
2019-02-18T16:43:29.158Z,11.40
2019-02-18T16:46:10.092Z,11.30
2019-02-18T16:48:39.752Z,11.30
2019-02-18T16:51:17.974Z,11.20
2019-02-18T16:53:47.891Z,11.10
2019-02-18T16:56:17.191Z,11.00
2019-02-18T16:58:46.451Z,11.00
2019-02-18T17:01:17.698Z,10.90
2019-02-18T17:03:46.724Z,10.90
2019-02-18T17:06:17.334Z,10.80
2019-02-18T17:08:46.767Z,10.80
2019-02-18T17:11:16.168Z,10.70
2019-02-18T17:13:45.779Z,10.70
2019-02-18T17:16:15.545Z,10.60
2019-02-18T17:18:44.787Z,10.60
2019-02-18T17:21:14.189Z,10.60
2019-02-18T17:23:43.801Z,10.50
2019-02-18T17:26:12.871Z,10.50
2019-02-18T17:28:42.188Z,10.40
2019-02-18T17:31:16.337Z,10.40
2019-02-18T17:34:05.922Z,10.40
2019-02-18T17:36:34.706Z,10.30
2019-02-18T17:39:05.143Z,10.50
2019-02-18T17:41:35.059Z,10.20
2019-02-18T17:44:04.299Z,10.30
2019-02-18T17:46:38.491Z,10.30
2019-02-18T17:49:07.565Z,10.30
2019-02-18T17:51:37.157Z,10.30
2019-02-18T17:54:06.457Z,10.30
2019-02-18T17:56:41.224Z,10.30
2019-02-18T17:59:12.744Z,10.20
2019-02-18T18:01:45.605Z,10.20
2019-02-18T18:04:14.933Z,10.10
2019-02-18T18:06:44.552Z,10.10
2019-02-18T18:09:16.789Z,10.10
2019-02-18T18:11:49.284Z,10.10
2019-02-18T18:14:18.635Z,10.10
2019-02-18T18:16:48.089Z,10.00
2019-02-18T18:19:17.641Z,10.00
2019-02-18T18:21:49.623Z,10.00
2019-02-18T18:24:20.184Z,10.00
2019-02-18T18:26:50.107Z,10.00
2019-02-18T18:29:19.287Z,9.90
2019-02-18T18:31:48.554Z,10.00
2019-02-18T18:34:21.331Z,10.00
2019-02-18T18:36:51.760Z,10.10
2019-02-18T18:39:20.881Z,10.10
2019-02-18T18:41:50.427Z,10.20
2019-02-18T18:44:19.971Z,10.20
2019-02-18T18:46:54.579Z,10.20
2019-02-18T18:49:28.057Z,10.30
2019-02-18T18:52:51.897Z,10.30
2019-02-18T18:55:42.039Z,10.20
2019-02-18T18:58:11.856Z,10.20
2019-02-18T19:00:41.380Z,10.20
2019-02-18T19:03:13.257Z,10.20
2019-02-18T19:05:42.535Z,10.10
2019-02-18T19:08:14.882Z,10.20
2019-02-18T19:10:45.778Z,10.20
2019-02-18T19:13:15.154Z,10.20
2019-02-18T19:15:49.627Z,10.10
2019-02-18T19:18:21.664Z,10.20
2019-02-18T19:21:03.367Z,10.50
2019-02-18T19:23:40.416Z,10.00
2019-02-18T19:26:21.353Z,9.80
2019-02-18T19:29:04.890Z,9.80
2019-02-18T19:32:03.840Z,9.80
2019-02-18T19:34:37.308Z,9.80
2019-02-18T19:37:32.417Z,9.70
2019-02-18T19:40:09.294Z,9.70
2019-02-18T19:42:39.690Z,9.70
2019-02-18T19:45:24.902Z,7.60
2019-02-18T19:47:59.830Z,9.60
2019-02-18T19:50:30.159Z,9.60
2019-02-18T19:53:05.460Z,9.50
2019-02-18T19:55:37.916Z,9.40
2019-02-18T19:58:10.359Z,9.50
2019-02-18T20:00:43.966Z,9.40
2019-02-18T20:03:16.906Z,9.40
2019-02-18T20:06:00.762Z,9.40
2019-02-18T20:11:15.239Z,9.50
2019-02-18T20:13:47.928Z,9.10
2019-02-18T20:16:25.715Z,9.60
2019-02-18T20:21:36.417Z,9.60
2019-02-18T20:24:11.631Z,9.50
2019-02-18T20:26:48.539Z,9.60
2019-02-18T20:29:28.643Z,9.60
2019-02-18T20:32:20.473Z,9.60
2019-02-18T20:35:36.973Z,9.60
2019-02-18T20:37:49.027Z,9.60
2019-02-18T20:40:46.571Z,9.10
2019-02-18T20:43:30.224Z,9.60
2019-02-18T20:46:08.369Z,9.30
2019-02-18T20:48:40.058Z,9.60
2019-02-18T20:51:16.253Z,9.50
2019-02-18T20:53:47.061Z,9.90
2019-02-18T20:56:28.292Z,9.60
2019-02-18T20:58:58.362Z,9.50
2019-02-18T21:01:28.057Z,9.50
2019-02-18T21:04:03.342Z,9.50
2019-02-18T21:06:39.583Z,9.50
2019-02-18T21:09:19.828Z,9.60
2019-02-18T21:12:46.671Z,9.50
2019-02-18T21:15:27.162Z,9.60
2019-02-18T21:18:12.781Z,9.60
2019-02-18T21:20:51.261Z,9.50
2019-02-18T21:23:30.874Z,9.60
2019-02-18T21:26:17.848Z,9.50
2019-02-18T21:29:13.647Z,9.50
2019-02-18T21:32:12.458Z,9.40
2019-02-18T21:34:52.054Z,9.30
2019-02-18T21:37:39.951Z,9.30
2019-02-18T21:40:17.244Z,9.20
2019-02-18T21:42:47.137Z,7.90
2019-02-18T21:45:16.632Z,9.20
2019-02-18T21:47:52.988Z,9.10
2019-02-18T21:50:27.039Z,9.10
2019-02-18T21:53:21.722Z,9.00
2019-02-18T21:56:11.898Z,9.00
2019-02-18T21:58:45.990Z,8.90
2019-02-18T22:01:25.063Z,8.60
2019-02-18T22:04:01.612Z,8.80
2019-02-18T22:06:31.928Z,8.80
2019-02-18T22:09:04.537Z,8.70
2019-02-18T22:11:35.365Z,8.70
2019-02-18T22:14:13.473Z,8.60
2019-02-18T22:16:48.515Z,8.60
2019-02-18T22:19:20.347Z,8.60
2019-02-18T22:22:00.582Z,8.50
2019-02-18T22:24:32.036Z,8.60
2019-02-18T22:27:01.765Z,8.20
2019-02-18T22:29:35.278Z,8.60
2019-02-18T22:32:05.452Z,8.60
2019-02-18T22:34:57.933Z,8.60
2019-02-18T22:37:27.717Z,8.60
2019-02-18T22:40:06.050Z,8.60
2019-02-18T22:42:39.862Z,8.60
2019-02-18T22:45:13.728Z,8.50
2019-02-18T22:47:53.618Z,8.40
2019-02-18T22:50:28.377Z,8.60
2019-02-18T22:53:07.873Z,8.60
2019-02-18T22:55:37.907Z,8.60
2019-02-18T22:58:12.033Z,8.70
2019-02-18T23:00:58.626Z,8.60
2019-02-18T23:03:39.009Z,8.60
2019-02-18T23:06:23.275Z,8.50
2019-02-18T23:09:10.346Z,8.60
2019-02-18T23:11:54.238Z,8.60
2019-02-18T23:15:19.992Z,8.70
2019-02-18T23:17:09.863Z,8.60
2019-02-18T23:19:52.676Z,8.60
2019-02-18T23:23:13.589Z,8.60
2019-02-18T23:25:43.621Z,8.60
2019-02-18T23:28:17.408Z,8.60
2019-02-18T23:30:51.613Z,8.50
2019-02-18T23:33:31.011Z,10.10
2019-02-18T23:36:37.919Z,8.60
2019-02-18T23:39:08.121Z,8.60
2019-02-18T23:41:38.558Z,8.50
2019-02-18T23:44:10.871Z,8.50
2019-02-18T23:46:40.887Z,8.50
2019-02-18T23:49:11.767Z,8.40
2019-02-18T23:51:42.177Z,8.50
2019-02-18T23:54:11.504Z,8.50
2019-02-18T23:56:48.007Z,8.50
2019-02-18T23:59:17.639Z,8.50
